Souder, Missouri
Current Conditions -  °F | °C
As of 12:53 PM on Saturday 20 Dec 2014 (Local Time) from KBPK Reporting Station
Haze Haze  
Wind Chill: 41°   Ceiling: 700
Heat Index: 41°   Visibility: 4mi
Dew Point: 38°   Wind: 0mph
Humidity: 89%   Direction: NA
Pressure: 30.21"   Gusts: NA
Location:  36.7438°N, 92.5205°W
Report Text: KBPK 201853Z AUTO 00000KT 4SM BR OVC007 05/03 A3021 RMK AO2 SLP234 T00500033
Loading
Personal Weather Stations






























Interactive Weather Map New forecast layout! Learn more

10-Day Weather Forecast

Advertisements
Track Severe Weather on mobile